Amherst, Canada
Current Conditions -  °F | °C
As of 9:00 PM on Sunday 23 Nov 2014 (Local Time) from CYQM Reporting Station
Overcast Overcast  
Wind Chill: 28°   Ceiling: 4500
Heat Index: 34°   Visibility: 15mi
Dew Point: 28°   Wind: 7mph
Humidity: 81%   Direction: 200°SSW
Pressure: 30.14"   Gusts: NA
Location:  45.85°N, 64.27°W
Report Text: CYQM 240100Z 20006KT 15SM OVC045 01/M02 A3014 RMK SC8 SLP210
Loading
Personal Weather Stations






























Interactive Weather Map New forecast layout! Learn more

10-Day Weather Forecast

Advertisements
Track Severe Weather on mobile